Terminal Aerodrome Forecast
Issued by NWS Jackson, MS

Home | Current Version | Previous Version | Text Only | Print | Product List | Glossary On
Versions: 1 2 3 4 5 6 7 8 9 10 11 12 13 14
706
FTUS44 KMEG 250530
TAFTUP
TAF
KTUP 250530Z 2506/2606 30004KT P6SM SKC
      TEMPO 2509/2512 4SM BR BCFG
     FM251600 32007KT P6SM BKN150 BKN250
     FM252200 34007KT P6SM VCSH FEW035 OVC080
     FM260400 01009KT 6SM -RA BR SCT025 OVC035=

USA.gov is the U.S. government's official web portal to all federal, state and local government web resources and services.